Time;durP1;ratioP1;P1;durP2;ratioP2;P2;SDS_P1;SDS_P2;PMS_P1;PMS_P2;Temp;Humidity;BMP_temperature;BMP_pressure;BME280_temperature;BME280_humidity;BME280_pressure;Samples;Min_cycle;Max_cycle;Signal;HPM_P1;HPM_P2
2023/07/22 00:01:45;;;;;;;5.00;3.60;;;;;;;16.68;74.58;98035.29;435070;1257;107293;-42
2023/07/22 00:21:56;;;;;;;6.40;3.40;;;;;;;16.77;75.20;98037.70;435074;1256;108385;-43
2023/07/22 00:32:03;;;;;;;4.70;3.40;;;;;;;16.70;75.25;98029.14;435123;1253;98850;-43
2023/07/22 00:42:10;;;;;;;30.40;16.20;;;;;;;16.84;75.74;98039.50;435140;1257;111220;-43
2023/07/22 00:52:17;;;;;;;12.30;7.20;;;;;;;17.06;75.84;98047.15;435170;1254;107158;-43
2023/07/22 01:02:25;;;;;;;4.80;4.10;;;;;;;17.23;75.73;98049.13;435178;1257;99225;-43
2023/07/22 01:12:33;;;;;;;6.50;4.50;;;;;;;17.16;75.66;98036.03;434978;1256;107464;-44
2023/07/22 01:22:39;;;;;;;9.30;5.10;;;;;;;17.01;75.59;98028.90;435493;1256;99250;-43
2023/07/22 01:42:56;;;;;;;5.70;4.90;;;;;;;16.91;76.14;98014.16;434049;1259;107806;-42
2023/07/22 02:03:10;;;;;;;6.90;5.80;;;;;;;16.94;76.12;98044.84;434152;1267;108162;-44
2023/07/22 02:13:17;;;;;;;8.20;6.70;;;;;;;16.78;76.68;98058.41;434188;1260;99249;-41
2023/07/22 02:23:25;;;;;;;11.90;9.80;;;;;;;16.77;76.73;98052.73;434179;1258;111492;-42
2023/07/22 02:33:31;;;;;;;18.70;12.80;;;;;;;16.72;77.35;98045.24;434235;1254;107014;-43
2023/07/22 02:43:38;;;;;;;23.10;16.00;;;;;;;16.74;77.65;98059.85;434277;1260;99227;-43
2023/07/22 02:53:46;;;;;;;21.50;18.20;;;;;;;16.85;77.82;98075.98;434395;1264;108349;-42
2023/07/22 03:03:54;;;;;;;26.00;19.90;;;;;;;16.81;78.11;98092.84;434709;1257;98813;-43
2023/07/22 03:14:02;;;;;;;22.00;17.70;;;;;;;16.80;78.66;98101.02;434551;1258;113218;-42
2023/07/22 03:24:09;;;;;;;20.40;16.50;;;;;;;16.82;78.97;98099.41;434219;1258;109150;-43
2023/07/22 03:34:15;;;;;;;18.70;13.70;;;;;;;16.90;79.04;98108.45;434286;1260;99371;-42
2023/07/22 03:44:21;;;;;;;13.60;12.20;;;;;;;16.88;79.06;98121.08;434150;1254;108383;-42
2023/07/22 03:54:28;;;;;;;17.50;11.60;;;;;;;16.90;79.16;98127.67;434367;1261;99264;-43
2023/07/22 04:04:35;;;;;;;13.40;10.60;;;;;;;16.92;79.27;98142.29;434165;1261;111903;-43
2023/07/22 04:14:42;;;;;;;11.20;9.00;;;;;;;16.77;79.65;98159.57;434267;1259;107237;-43
2023/07/22 04:24:50;;;;;;;12.00;9.00;;;;;;;16.67;80.12;98169.85;434175;1255;99241;-43
2023/07/22 04:34:57;;;;;;;19.70;10.30;;;;;;;16.58;80.54;98182.84;434122;1267;107289;-43
2023/07/22 04:45:04;;;;;;;11.20;9.50;;;;;;;16.57;80.88;98197.41;434361;1260;99314;-45
2023/07/22 04:55:12;;;;;;;14.30;9.30;;;;;;;16.78;80.73;98203.19;434219;1257;112072;-43
2023/07/22 05:05:19;;;;;;;10.40;8.20;;;;;;;17.01;80.56;98216.77;434096;1267;108705;-43
2023/07/22 05:15:26;;;;;;;10.50;8.70;;;;;;;17.38;80.20;98219.60;434172;1259;99244;-44
2023/07/22 05:25:33;;;;;;;10.30;8.10;;;;;;;17.67;79.86;98233.84;434145;1259;107657;-43
2023/07/22 05:35:41;;;;;;;10.00;6.30;;;;;;;18.28;79.86;98243.30;433942;1259;99224;-43
2023/07/22 05:45:48;;;;;;;8.10;6.30;;;;;;;19.90;79.69;98238.58;434001;1258;111024;-44
2023/07/22 05:55:55;;;;;;;5.50;4.90;;;;;;;21.26;77.98;98241.07;434062;1257;108664;-42
2023/07/22 06:06:02;;;;;;;6.20;4.60;;;;;;;22.22;75.84;98236.28;434007;1256;99244;-41
2023/07/22 06:16:09;;;;;;;5.20;4.50;;;;;;;22.58;73.25;98240.04;434151;1255;109458;-43
2023/07/22 06:26:15;;;;;;;;;;;;;;;22.56;71.10;98247.00;434091;1260;99266;-42
2023/07/22 06:36:22;;;;;;;5.50;4.00;;;;;;;23.21;70.91;98256.52;434280;1254;111331;-41
2023/07/22 06:46:29;;;;;;;3.90;3.50;;;;;;;23.59;68.40;98267.50;434264;1259;108987;-41
2023/07/22 06:56:36;;;;;;;5.10;2.30;;;;;;;23.88;67.18;98271.00;434330;1267;98816;-42
2023/07/22 07:06:43;;;;;;;4.00;2.80;;;;;;;23.70;64.91;98293.52;434293;1254;108676;-43
2023/07/22 07:16:48;;;;;;;3.00;2.10;;;;;;;23.61;63.64;98307.56;434133;1254;99221;-43
2023/07/22 07:26:55;;;;;;;3.40;2.20;;;;;;;23.64;63.03;98306.84;434256;1259;111269;-42
2023/07/22 07:37:02;;;;;;;4.90;2.10;;;;;;;23.93;62.16;98305.55;434192;1259;107856;-42
2023/07/22 07:47:09;;;;;;;7.60;2.50;;;;;;;24.05;60.90;98318.95;434178;1259;99312;-42
2023/07/22 07:57:17;;;;;;;3.00;1.70;;;;;;;24.02;60.18;98336.36;434129;1256;109465;-42
2023/07/22 08:07:24;;;;;;;3.90;2.60;;;;;;;23.79;58.24;98348.17;434093;1257;99225;-42
2023/07/22 08:17:31;;;;;;;2.80;2.30;;;;;;;23.53;57.74;98361.11;434149;1256;112187;-42
2023/07/22 08:27:39;;;;;;;2.90;2.00;;;;;;;23.49;57.00;98362.02;434154;1254;107457;-42
2023/07/22 08:47:55;;;;;;;5.50;2.80;;;;;;;22.97;56.23;98383.58;434119;1258;108224;-42
2023/07/22 08:58:05;;;;;;;2.70;2.10;;;;;;;23.20;55.93;98386.23;434210;1254;98893;-43
2023/07/22 09:08:11;;;;;;;2.00;1.90;;;;;;;23.36;54.80;98400.27;434445;1257;112162;-43
2023/07/22 09:18:18;;;;;;;2.10;1.60;;;;;;;23.78;53.70;98405.26;434197;1254;109444;-42
2023/07/22 09:28:22;;;;;;;;;;;;;;;24.42;52.48;98405.77;434232;1259;99360;-44
2023/07/22 09:38:27;;;;;;;2.20;1.90;;;;;;;24.58;51.45;98405.23;434165;1253;108267;-42
2023/07/22 09:58:48;;;;;;;2.20;2.00;;;;;;;24.05;50.54;98406.48;434288;1267;112151;-42
2023/07/22 10:08:56;;;;;;;2.00;1.70;;;;;;;24.51;51.36;98397.91;434144;1254;107802;-43
2023/07/22 10:19:06;;;;;;;5.30;2.60;;;;;;;24.59;49.87;98399.24;434327;1257;99257;-43
2023/07/22 10:39:27;;;;;;;2.40;2.10;;;;;;;23.56;50.20;98414.41;434651;1257;99215;-41
2023/07/22 10:49:43;;;;;;;2.40;2.20;;;;;;;24.17;49.89;98421.90;434307;1254;112194;-42
2023/07/22 10:59:51;;;;;;;6.30;3.60;;;;;;;23.80;49.58;98433.15;434200;1259;108457;-45
2023/07/22 11:09:58;;;;;;;3.00;2.00;;;;;;;23.87;49.85;98437.41;434364;1254;98009;-43
2023/07/22 11:20:07;;;;;;;4.00;2.20;;;;;;;24.54;48.46;98438.39;434245;1255;108150;-43
2023/07/22 11:40:22;;;;;;;1.80;1.70;;;;;;;25.36;47.36;98431.23;434343;1253;111173;-42
2023/07/22 11:50:36;;;;;;;6.20;2.10;;;;;;;25.36;46.58;98437.75;434258;1254;108803;-41
2023/07/22 12:00:43;;;;;;;2.90;1.90;;;;;;;24.55;46.13;98448.56;434318;1254;99226;-43
2023/07/22 12:11:16;;;;;;;6.30;2.40;;;;;;;23.81;46.90;98443.45;434082;1254;501618;-40
2023/07/22 12:21:23;;;;;;;2.90;1.40;;;;;;;24.36;45.97;98428.68;434387;1258;99282;-42
2023/07/22 12:31:30;;;;;;;4.60;1.90;;;;;;;24.55;45.69;98422.13;434288;1259;111841;-42
2023/07/22 12:41:38;;;;;;;5.00;1.40;;;;;;;24.30;45.33;98432.84;434065;1256;108370;-43
2023/07/22 12:51:45;;;;;;;1.90;1.70;;;;;;;23.35;45.38;98439.17;434115;1256;99258;-44
2023/07/22 13:01:53;;;;;;;4.50;1.90;;;;;;;22.88;45.47;98445.30;434112;1256;109264;-42
2023/07/22 13:11:59;;;;;;;1.80;1.50;;;;;;;22.37;46.05;98450.48;434046;1256;98689;-42
2023/07/22 13:22:06;;;;;;;2.90;1.60;;;;;;;22.72;45.96;98440.20;434041;1259;111616;-43
2023/07/22 13:32:13;;;;;;;7.40;2.00;;;;;;;23.33;45.60;98437.41;434276;1258;108086;-44
2023/07/22 13:42:20;;;;;;;3.70;2.00;;;;;;;23.38;45.27;98434.77;434452;1253;98876;-42
2023/07/22 13:52:27;;;;;;;2.10;2.00;;;;;;;23.32;45.16;98428.07;434588;1259;108669;-44
2023/07/22 14:02:35;;;;;;;4.60;2.30;;;;;;;23.36;45.38;98426.31;434493;1257;101587;-43
2023/07/22 14:12:40;;;;;;;3.30;2.20;;;;;;;23.29;44.96;98420.77;434402;1259;112020;-43
2023/07/22 14:22:49;;;;;;;2.30;1.80;;;;;;;23.00;44.92;98412.55;434306;1259;107953;-43
2023/07/22 14:32:56;;;;;;;2.50;1.80;;;;;;;23.09;44.87;98406.65;434536;1254;99243;-43
2023/07/22 14:53:09;;;;;;;4.00;2.00;;;;;;;23.25;44.75;98406.52;434570;1254;99238;-43
2023/07/22 15:03:16;;;;;;;2.40;2.20;;;;;;;22.85;45.11;98404.53;434373;1254;111511;-45
2023/07/22 15:13:25;;;;;;;2.30;2.20;;;;;;;22.97;45.54;98401.85;434326;1259;108538;-43
2023/07/22 15:23:33;;;;;;;2.50;2.30;;;;;;;23.11;45.05;98403.19;434506;1256;99243;-41
2023/07/22 15:33:40;;;;;;;4.40;2.40;;;;;;;23.08;44.39;98398.52;434497;1259;107545;-43
2023/07/22 15:43:47;;;;;;;4.70;2.30;;;;;;;23.15;43.97;98397.52;434272;1258;99215;-43
2023/07/22 15:53:54;;;;;;;6.90;3.00;;;;;;;22.93;43.89;98396.46;434397;1259;111330;-42
2023/07/22 16:04:02;;;;;;;3.30;3.00;;;;;;;22.66;44.30;98403.08;434306;1259;108410;-43
2023/07/22 16:14:09;;;;;;;5.10;2.90;;;;;;;22.38;44.71;98402.25;434424;1253;99219;-44
2023/07/22 16:24:15;;;;;;;4.20;2.40;;;;;;;22.26;45.02;98394.67;434314;1253;106732;-44
2023/07/22 16:34:22;;;;;;;4.90;2.30;;;;;;;22.22;44.47;98401.11;434226;1256;99249;-43
2023/07/22 16:44:29;;;;;;;4.10;2.70;;;;;;;22.14;44.60;98409.05;434288;1259;112871;-42
2023/07/22 16:54:37;;;;;;;6.80;3.20;;;;;;;21.99;44.76;98416.78;434462;1254;109162;-42
2023/07/22 17:04:44;;;;;;;3.00;2.80;;;;;;;21.79;44.80;98415.31;434235;1256;99324;-43
2023/07/22 17:14:51;;;;;;;5.30;2.70;;;;;;;21.60;45.19;98415.95;434199;1259;108540;-43
2023/07/22 17:24:58;;;;;;;3.60;3.10;;;;;;;21.34;45.66;98420.45;434160;1257;99320;-42
2023/07/22 17:35:06;;;;;;;3.70;3.20;;;;;;;21.01;46.08;98423.09;434234;1259;112244;-45
2023/07/22 17:45:12;;;;;;;5.20;2.90;;;;;;;20.76;46.62;98424.65;434311;1259;108372;-43
2023/07/22 17:55:20;;;;;;;4.40;3.10;;;;;;;20.66;47.37;98429.77;434276;1259;99253;-44
2023/07/22 18:05:27;;;;;;;4.90;3.80;;;;;;;20.47;47.48;98439.70;434179;1261;109544;-44
2023/07/22 18:15:35;;;;;;;7.10;4.70;;;;;;;20.22;47.82;98446.31;434156;1259;99224;-44
2023/07/22 18:25:42;;;;;;;6.10;5.10;;;;;;;19.88;48.17;98454.64;434376;1256;111194;-43
2023/07/22 18:45:54;;;;;;;4.50;4.10;;;;;;;19.18;49.12;98460.05;434221;1257;99240;-44
2023/07/22 18:56:01;;;;;;;6.90;4.30;;;;;;;18.84;49.71;98467.14;434635;1254;108556;-42
2023/07/22 19:06:08;;;;;;;11.30;5.10;;;;;;;18.44;50.40;98474.59;434627;1258;98335;-45
2023/07/22 19:16:15;;;;;;;7.00;5.20;;;;;;;18.13;50.71;98482.30;434432;1254;111976;-41
2023/07/22 19:26:22;;;;;;;6.60;5.20;;;;;;;17.89;51.04;98489.41;434282;1257;108379;-42
2023/07/22 19:36:29;;;;;;;6.80;5.30;;;;;;;17.65;51.45;98496.48;434211;1254;98747;-44
2023/07/22 19:46:36;;;;;;;8.60;5.30;;;;;;;17.37;52.23;98507.39;434177;1253;107093;-42
2023/07/22 19:56:43;;;;;;;9.80;5.10;;;;;;;16.99;52.86;98513.68;434230;1254;99122;-42
2023/07/22 20:27:02;;;;;;;7.70;4.50;;;;;;;16.50;54.84;98528.76;434190;1260;99249;-43
2023/07/22 20:37:08;;;;;;;9.80;6.10;;;;;;;16.40;55.66;98537.86;434279;1253;106913;-43
2023/07/22 20:47:15;;;;;;;11.10;5.40;;;;;;;16.24;56.08;98539.42;434426;1260;99215;-43
2023/07/22 20:57:22;;;;;;;6.30;5.40;;;;;;;15.98;56.30;98539.27;434281;1259;112882;-41
2023/07/22 21:07:29;;;;;;;12.40;7.40;;;;;;;15.74;56.76;98540.64;434205;1255;109112;-43
2023/07/22 21:17:36;;;;;;;9.10;7.20;;;;;;;15.48;57.58;98546.98;434244;1260;99312;-43
2023/07/22 21:27:43;;;;;;;10.70;6.10;;;;;;;15.53;58.37;98550.44;434103;1267;107124;-42
2023/07/22 21:37:54;;;;;;;9.40;6.60;;;;;;;15.47;58.87;98551.18;434162;1267;99339;-42
2023/07/22 21:48:01;;;;;;;12.80;8.70;;;;;;;15.41;59.12;98557.55;434299;1260;111332;-42
2023/07/22 22:08:15;;;;;;;10.90;8.10;;;;;;;14.98;60.13;98563.80;434281;1260;99228;-41
2023/07/22 22:28:28;;;;;;;22.80;9.50;;;;;;;14.95;61.09;98564.70;434207;1260;98830;-43
2023/07/22 22:38:36;;;;;;;17.10;10.30;;;;;;;14.92;61.46;98567.98;434262;1254;111692;-42
2023/07/22 22:48:43;;;;;;;12.80;10.10;;;;;;;14.81;61.89;98573.98;434184;1260;107255;-43
2023/07/22 22:58:50;;;;;;;18.00;11.40;;;;;;;14.73;62.41;98576.02;434247;1260;98813;-42
2023/07/22 23:08:57;;;;;;;17.90;12.30;;;;;;;14.62;62.90;98578.45;434369;1255;108318;-42
2023/07/22 23:19:03;;;;;;;16.30;12.20;;;;;;;14.55;63.36;98571.44;434289;1259;99245;-44
2023/07/22 23:29:10;;;;;;;19.80;13.70;;;;;;;14.41;63.65;98570.42;434165;1260;112081;-42
2023/07/22 23:39:17;;;;;;;15.40;11.50;;;;;;;14.28;63.99;98571.95;434256;1255;108609;-43
2023/07/22 23:49:24;;;;;;;19.30;12.70;;;;;;;14.16;64.56;98566.92;434309;1267;98843;-42
2023/07/22 23:59:31;;;;;;;18.60;12.90;;;;;;;14.06;64.90;98564.61;434232;1258;107390;-43
